Time;durP1;ratioP1;P1;durP2;ratioP2;P2;SDS_P1;SDS_P2;PMS_P1;PMS_P2;Temp;Humidity;BMP_temperature;BMP_pressure;BME280_temperature;BME280_humidity;BME280_pressure;Samples;Min_cycle;Max_cycle;Signal;HPM_P1;HPM_P2
2023/09/26 00:00:31;;;;;;;8.15;3.13;;;;;;;;;;4979668;28;20050;-66
2023/09/26 00:02:58;;;;;;;9.85;3.50;;;;;;;;;;4994752;28;20045;-67
2023/09/26 00:05:25;;;;;;;7.38;3.30;;;;;;;;;;5010589;28;20092;-67
2023/09/26 00:07:52;;;;;;;6.50;2.88;;;;;;;;;;4978529;28;20708;-67
2023/09/26 00:10:19;;;;;;;10.82;2.40;;;;;;;;;;4978785;28;20140;-67
2023/09/26 00:12:46;;;;;;;6.90;2.70;;;;;;;;;;4979283;28;20434;-67
2023/09/26 00:15:13;;;;;;;7.30;2.90;;;;;;;;;;4979100;28;20049;-62
2023/09/26 00:17:40;;;;;;;8.38;2.95;;;;;;;;;;4979798;28;20062;-60
2023/09/26 00:20:10;;;;;;;7.53;3.10;;;;;;;;;;4980661;28;20442;-65
2023/09/26 00:22:37;;;;;;;10.43;3.40;;;;;;;;;;4996064;28;20033;-66
2023/09/26 00:25:04;;;;;;;9.93;3.45;;;;;;;;;;4978019;28;20047;-67
2023/09/26 00:27:31;;;;;;;8.95;3.22;;;;;;;;;;4999242;28;20494;-65
2023/09/26 00:29:59;;;;;;;10.70;3.53;;;;;;;;;;5002388;28;20137;-66
2023/09/26 00:32:30;;;;;;;10.18;3.60;;;;;;;;;;5006781;28;20069;-68
2023/09/26 00:34:57;;;;;;;12.02;3.40;;;;;;;;;;4992104;28;20405;-66
2023/09/26 00:37:23;;;;;;;11.63;3.40;;;;;;;;;;4978203;28;20076;-66
2023/09/26 00:39:50;;;;;;;6.65;3.22;;;;;;;;;;4977079;28;20069;-66
2023/09/26 00:42:17;;;;;;;10.10;3.05;;;;;;;;;;4975348;28;20046;-67
2023/09/26 00:44:45;;;;;;;7.00;3.30;;;;;;;;;;4971800;28;20061;-67
2023/09/26 00:47:12;;;;;;;7.75;2.70;;;;;;;;;;4989214;28;20041;-69
2023/09/26 00:49:39;;;;;;;10.25;3.08;;;;;;;;;;4974739;28;20044;-67
2023/09/26 00:52:07;;;;;;;6.80;2.58;;;;;;;;;;4978144;28;20070;-67
2023/09/26 00:54:34;;;;;;;5.43;2.63;;;;;;;;;;4979879;28;20775;-67
2023/09/26 00:57:03;;;;;;;7.50;2.78;;;;;;;;;;4977475;28;20038;-67
2023/09/26 00:59:31;;;;;;;11.68;2.97;;;;;;;;;;4969733;28;20050;-66
2023/09/26 01:01:59;;;;;;;7.47;2.55;;;;;;;;;;5009807;28;20456;-65
2023/09/26 01:04:25;;;;;;;8.07;2.75;;;;;;;;;;4999407;28;20124;-66
2023/09/26 01:06:52;;;;;;;11.75;3.20;;;;;;;;;;4979053;28;20422;-64
2023/09/26 01:09:19;;;;;;;15.85;3.00;;;;;;;;;;4976224;28;20045;-61
2023/09/26 01:11:46;;;;;;;7.43;2.83;;;;;;;;;;4977270;28;20463;-63
2023/09/26 01:14:32;;;;;;;7.55;2.95;;;;;;;;;;5011823;28;20175;-62
2023/09/26 01:16:59;;;;;;;7.80;2.72;;;;;;;;;;5013786;28;20453;-61
2023/09/26 01:19:26;;;;;;;7.72;3.20;;;;;;;;;;5013152;28;20188;-60
2023/09/26 01:21:53;;;;;;;11.10;3.30;;;;;;;;;;5012752;28;20033;-66
2023/09/26 01:24:20;;;;;;;7.50;2.75;;;;;;;;;;5005904;28;20468;-66
2023/09/26 01:26:47;;;;;;;8.68;2.92;;;;;;;;;;4999598;28;20107;-68
2023/09/26 01:29:14;;;;;;;7.75;2.63;;;;;;;;;;5030793;28;20048;-64
2023/09/26 01:31:40;;;;;;;14.88;3.13;;;;;;;;;;5035555;28;20041;-62
2023/09/26 01:34:07;;;;;;;9.40;2.67;;;;;;;;;;5034175;28;20044;-64
2023/09/26 01:36:34;;;;;;;15.48;3.58;;;;;;;;;;5035878;28;20041;-67
2023/09/26 01:39:01;;;;;;;8.35;3.10;;;;;;;;;;5024165;28;20086;-64
2023/09/26 01:41:28;;;;;;;8.75;2.92;;;;;;;;;;5021191;28;21582;-68
2023/09/26 01:43:55;;;;;;;5.82;2.40;;;;;;;;;;5052429;28;20714;-68
2023/09/26 01:46:41;;;;;;;10.48;3.33;;;;;;;;;;5035715;28;20056;-67
2023/09/26 01:49:08;;;;;;;7.00;2.72;;;;;;;;;;5036136;28;20051;-66
2023/09/26 01:51:35;;;;;;;10.85;2.95;;;;;;;;;;5034685;28;20053;-67
2023/09/26 01:54:01;;;;;;;10.88;3.03;;;;;;;;;;5035796;28;20592;-66
2023/09/26 01:56:28;;;;;;;7.00;2.78;;;;;;;;;;5027463;28;20056;-67
2023/09/26 01:58:55;;;;;;;8.73;2.80;;;;;;;;;;5036663;28;20033;-69
2023/09/26 02:01:21;;;;;;;7.88;2.95;;;;;;;;;;5037335;28;20039;-67
2023/09/26 02:03:48;;;;;;;7.25;2.90;;;;;;;;;;5034926;28;20445;-67
2023/09/26 02:06:34;;;;;;;9.20;2.92;;;;;;;;;;5035890;28;20033;-66
2023/09/26 02:09:01;;;;;;;9.18;3.05;;;;;;;;;;5035716;28;20041;-65
2023/09/26 02:11:28;;;;;;;7.35;2.95;;;;;;;;;;5017158;28;20098;-64
2023/09/26 02:13:55;;;;;;;7.78;2.95;;;;;;;;;;5034167;28;20174;-62
2023/09/26 02:16:22;;;;;;;8.32;3.03;;;;;;;;;;5028076;28;20178;-63
2023/09/26 02:19:09;;;;;;;6.03;2.85;;;;;;;;;;5013164;28;20048;-63
2023/09/26 02:21:36;;;;;;;10.80;3.38;;;;;;;;;;5016544;28;20784;-63
2023/09/26 02:24:02;;;;;;;7.90;3.25;;;;;;;;;;5000012;28;20076;-64
2023/09/26 02:26:29;;;;;;;6.65;2.70;;;;;;;;;;4975908;28;20158;-64
2023/09/26 02:29:15;;;;;;;6.47;2.75;;;;;;;;;;4956707;28;20055;-63
2023/09/26 02:31:42;;;;;;;6.18;2.80;;;;;;;;;;4956512;28;20218;-64
2023/09/26 02:34:09;;;;;;;7.25;2.88;;;;;;;;;;4955642;28;20174;-64
2023/09/26 02:36:36;;;;;;;6.25;2.45;;;;;;;;;;4957517;28;20035;-66
2023/09/26 02:39:03;;;;;;;7.40;3.20;;;;;;;;;;4964433;28;20042;-64
2023/09/26 02:41:29;;;;;;;5.57;2.70;;;;;;;;;;4957084;28;20065;-64
2023/09/26 02:43:58;;;;;;;8.55;2.90;;;;;;;;;;4957022;28;20051;-64
2023/09/26 02:46:25;;;;;;;8.25;3.00;;;;;;;;;;4957606;28;20035;-65
2023/09/26 02:48:52;;;;;;;7.45;3.28;;;;;;;;;;4944989;28;20098;-66
2023/09/26 02:51:19;;;;;;;7.70;3.17;;;;;;;;;;5008247;28;20399;-64
2023/09/26 02:53:45;;;;;;;9.82;2.85;;;;;;;;;;4991907;28;20080;-66
2023/09/26 02:56:12;;;;;;;6.38;2.92;;;;;;;;;;4995190;28;20041;-65
2023/09/26 02:58:39;;;;;;;8.23;2.78;;;;;;;;;;4996518;28;20052;-65
2023/09/26 03:01:06;;;;;;;6.05;2.65;;;;;;;;;;4992980;28;20046;-66
2023/09/26 03:03:33;;;;;;;12.48;2.90;;;;;;;;;;4993759;28;20136;-67
2023/09/26 03:06:01;;;;;;;10.90;2.97;;;;;;;;;;4994097;28;20046;-65
2023/09/26 03:08:28;;;;;;;8.95;3.20;;;;;;;;;;5004084;28;20037;-64
2023/09/26 03:10:59;;;;;;;7.05;2.97;;;;;;;;;;4994513;28;20058;-64
2023/09/26 03:13:27;;;;;;;7.13;2.83;;;;;;;;;;4979247;28;20447;-64
2023/09/26 03:15:57;;;;;;;10.40;3.00;;;;;;;;;;4981611;28;20042;-64
2023/09/26 03:18:24;;;;;;;10.05;3.53;;;;;;;;;;4974075;28;20042;-63
2023/09/26 03:20:51;;;;;;;5.03;2.53;;;;;;;;;;4980061;28;20462;-63
2023/09/26 03:23:18;;;;;;;7.47;3.25;;;;;;;;;;4979839;28;20510;-62
2023/09/26 03:25:45;;;;;;;6.20;2.63;;;;;;;;;;4977101;28;20473;-65
2023/09/26 03:28:12;;;;;;;11.50;2.63;;;;;;;;;;4980327;28;20053;-63
2023/09/26 03:30:42;;;;;;;8.52;2.92;;;;;;;;;;4981920;28;20477;-63
2023/09/26 03:33:10;;;;;;;7.82;3.30;;;;;;;;;;4980143;28;20411;-63
2023/09/26 03:35:37;;;;;;;7.70;3.00;;;;;;;;;;4978688;28;20173;-61
2023/09/26 03:38:04;;;;;;;6.47;2.75;;;;;;;;;;4997967;28;20045;-62
2023/09/26 03:40:31;;;;;;;8.80;3.42;;;;;;;;;;4978504;28;20486;-66
2023/09/26 03:42:57;;;;;;;4.95;2.50;;;;;;;;;;4973350;28;20042;-64
2023/09/26 03:45:26;;;;;;;6.32;2.90;;;;;;;;;;4979317;28;20560;-62
2023/09/26 03:47:52;;;;;;;8.20;3.22;;;;;;;;;;4989511;28;20487;-61
2023/09/26 03:50:19;;;;;;;6.63;3.03;;;;;;;;;;4978837;28;20074;-63
2023/09/26 03:52:45;;;;;;;7.32;3.35;;;;;;;;;;4978490;28;20116;-61
2023/09/26 03:55:12;;;;;;;8.27;3.13;;;;;;;;;;5010064;28;20050;-60
2023/09/26 03:57:40;;;;;;;6.22;3.25;;;;;;;;;;4977681;28;20042;-61
2023/09/26 04:00:16;;;;;;;6.28;3.33;;;;;;;;;;5010007;28;20049;-63
2023/09/26 04:02:42;;;;;;;6.95;3.53;;;;;;;;;;4999799;28;20602;-62
2023/09/26 04:05:09;;;;;;;6.85;2.95;;;;;;;;;;4978119;28;20710;-65
2023/09/26 04:07:36;;;;;;;8.88;3.35;;;;;;;;;;4985345;28;20677;-63
2023/09/26 04:10:05;;;;;;;6.82;3.58;;;;;;;;;;4979438;28;20038;-64
2023/09/26 04:12:32;;;;;;;8.00;3.28;;;;;;;;;;4985186;28;20046;-61
2023/09/26 04:14:58;;;;;;;8.95;3.40;;;;;;;;;;4978495;28;20510;-62
2023/09/26 04:17:25;;;;;;;7.70;3.60;;;;;;;;;;4991324;28;20038;-61
2023/09/26 04:19:52;;;;;;;9.02;3.33;;;;;;;;;;4979555;28;20046;-61
2023/09/26 04:22:18;;;;;;;7.68;3.30;;;;;;;;;;4978877;28;20035;-63
2023/09/26 04:24:45;;;;;;;12.45;4.00;;;;;;;;;;4991248;28;20061;-63
2023/09/26 04:27:12;;;;;;;8.90;2.92;;;;;;;;;;4992508;28;20041;-60
2023/09/26 04:29:38;;;;;;;6.50;3.15;;;;;;;;;;4975416;28;20046;-62
2023/09/26 04:32:06;;;;;;;7.82;4.07;;;;;;;;;;5008932;28;20106;-61
2023/09/26 04:34:32;;;;;;;8.98;3.47;;;;;;;;;;4976445;28;20462;-63
2023/09/26 04:36:59;;;;;;;7.97;3.65;;;;;;;;;;4976906;28;21060;-63
2023/09/26 04:39:26;;;;;;;8.77;3.80;;;;;;;;;;4975782;28;20076;-61
2023/09/26 04:41:53;;;;;;;7.28;4.00;;;;;;;;;;4976163;28;20503;-61
2023/09/26 04:44:20;;;;;;;7.25;3.45;;;;;;;;;;4992003;28;20108;-66
2023/09/26 04:46:46;;;;;;;7.15;3.60;;;;;;;;;;4978448;28;20558;-64
2023/09/26 04:49:13;;;;;;;6.00;3.53;;;;;;;;;;4976034;28;20030;-61
2023/09/26 04:51:40;;;;;;;9.55;3.95;;;;;;;;;;4977489;28;20054;-61
2023/09/26 04:54:06;;;;;;;9.35;3.70;;;;;;;;;;4993131;28;20561;-63
2023/09/26 04:56:33;;;;;;;8.93;3.83;;;;;;;;;;4978221;28;20477;-63
2023/09/26 04:58:59;;;;;;;7.85;3.72;;;;;;;;;;4981000;28;20125;-62
2023/09/26 05:01:26;;;;;;;8.65;4.15;;;;;;;;;;4980367;28;20049;-65
2023/09/26 05:03:53;;;;;;;8.27;3.88;;;;;;;;;;5013343;28;20085;-63
2023/09/26 05:06:19;;;;;;;6.68;3.85;;;;;;;;;;4982133;28;20092;-63
2023/09/26 05:08:46;;;;;;;6.95;3.38;;;;;;;;;;4982428;28;20064;-63
2023/09/26 05:11:15;;;;;;;6.80;3.72;;;;;;;;;;4981665;28;21352;-62
2023/09/26 05:13:43;;;;;;;8.95;4.05;;;;;;;;;;4980724;28;20034;-64
2023/09/26 05:16:10;;;;;;;8.50;3.55;;;;;;;;;;4982591;28;20046;-61
2023/09/26 05:18:37;;;;;;;7.30;4.03;;;;;;;;;;4983274;28;20760;-60
2023/09/26 05:21:07;;;;;;;11.02;4.07;;;;;;;;;;4982814;28;20039;-61
2023/09/26 05:23:34;;;;;;;8.15;3.72;;;;;;;;;;4979629;28;20058;-61
2023/09/26 05:26:10;;;;;;;6.97;4.00;;;;;;;;;;4980456;28;20537;-65
2023/09/26 05:28:39;;;;;;;8.07;3.85;;;;;;;;;;4981172;28;20072;-60
2023/09/26 05:31:06;;;;;;;8.10;4.00;;;;;;;;;;4996606;28;20050;-63
2023/09/26 05:33:33;;;;;;;9.30;4.38;;;;;;;;;;4980489;28;20070;-63
2023/09/26 05:35:59;;;;;;;6.85;3.63;;;;;;;;;;4980829;28;20050;-61
2023/09/26 05:38:26;;;;;;;8.82;4.53;;;;;;;;;;4980024;28;20123;-66
2023/09/26 05:40:53;;;;;;;11.50;4.57;;;;;;;;;;4981924;28;20522;-61
2023/09/26 05:43:19;;;;;;;7.47;4.22;;;;;;;;;;4977273;28;20194;-63
2023/09/26 05:45:49;;;;;;;9.55;4.13;;;;;;;;;;4979657;28;20124;-61
2023/09/26 05:48:16;;;;;;;7.72;3.92;;;;;;;;;;4979454;28;20086;-60
2023/09/26 05:50:42;;;;;;;7.65;4.20;;;;;;;;;;4978580;28;20058;-63
2023/09/26 05:53:09;;;;;;;7.72;3.63;;;;;;;;;;4979866;28;20792;-66
2023/09/26 05:55:35;;;;;;;8.80;4.13;;;;;;;;;;4978601;28;20376;-62
2023/09/26 05:58:02;;;;;;;7.07;3.60;;;;;;;;;;4980157;28;20038;-64
2023/09/26 06:00:29;;;;;;;8.73;4.18;;;;;;;;;;4991857;28;20045;-64
2023/09/26 06:02:55;;;;;;;8.70;4.10;;;;;;;;;;4978467;28;20048;-64
2023/09/26 06:05:22;;;;;;;7.53;3.67;;;;;;;;;;4979234;28;20053;-64
2023/09/26 06:07:51;;;;;;;7.82;3.90;;;;;;;;;;4974944;28;20660;-63
2023/09/26 06:10:19;;;;;;;8.07;4.28;;;;;;;;;;4978207;28;20526;-63
2023/09/26 06:12:45;;;;;;;11.20;4.38;;;;;;;;;;4994392;28;20937;-64
2023/09/26 06:15:12;;;;;;;7.50;3.95;;;;;;;;;;4993986;28;20503;-63
2023/09/26 06:17:40;;;;;;;16.20;4.20;;;;;;;;;;4977225;28;20042;-62
2023/09/26 06:20:09;;;;;;;6.80;3.78;;;;;;;;;;5002351;28;20048;-63
2023/09/26 06:22:53;;;;;;;7.55;4.20;;;;;;;;;;4994879;28;20055;-64
2023/09/26 06:25:22;;;;;;;7.63;4.20;;;;;;;;;;4995174;28;20773;-65
2023/09/26 06:27:49;;;;;;;9.77;4.70;;;;;;;;;;4979633;28;20041;-63
2023/09/26 06:30:15;;;;;;;9.75;4.43;;;;;;;;;;4994615;28;20046;-62
2023/09/26 06:32:42;;;;;;;7.25;3.92;;;;;;;;;;4994952;28;20034;-62
2023/09/26 06:35:10;;;;;;;8.38;4.22;;;;;;;;;;4996016;28;20045;-63
2023/09/26 06:37:36;;;;;;;6.30;3.80;;;;;;;;;;4995121;28;20057;-63
2023/09/26 06:40:06;;;;;;;10.88;4.40;;;;;;;;;;4995276;28;20676;-64
2023/09/26 06:42:33;;;;;;;8.18;3.97;;;;;;;;;;4996225;28;20041;-63
2023/09/26 06:44:59;;;;;;;7.97;4.38;;;;;;;;;;4996017;28;20081;-61
2023/09/26 06:47:26;;;;;;;7.30;3.92;;;;;;;;;;4994389;28;20099;-63
2023/09/26 06:49:54;;;;;;;7.47;3.90;;;;;;;;;;4990708;28;20457;-63
2023/09/26 06:52:24;;;;;;;8.15;3.88;;;;;;;;;;4985590;28;20088;-66
2023/09/26 06:54:51;;;;;;;8.98;3.97;;;;;;;;;;4985989;28;20665;-62
2023/09/26 06:57:20;;;;;;;7.13;4.20;;;;;;;;;;4981906;28;20570;-60
2023/09/26 06:59:50;;;;;;;7.80;4.03;;;;;;;;;;4992283;28;20045;-63
2023/09/26 07:02:17;;;;;;;7.25;4.22;;;;;;;;;;4988905;28;20035;-62
2023/09/26 07:04:44;;;;;;;10.05;4.45;;;;;;;;;;4979527;28;20046;-61
2023/09/26 07:07:10;;;;;;;10.52;4.22;;;;;;;;;;4979107;28;21053;-62
2023/09/26 07:09:38;;;;;;;9.18;3.97;;;;;;;;;;4982080;28;21894;-61
2023/09/26 07:12:05;;;;;;;8.15;4.10;;;;;;;;;;4980470;28;20054;-63
2023/09/26 07:14:33;;;;;;;7.72;3.83;;;;;;;;;;4978324;28;20498;-65
2023/09/26 07:16:59;;;;;;;8.80;3.90;;;;;;;;;;4982145;28;20500;-62
2023/09/26 07:19:31;;;;;;;9.30;4.50;;;;;;;;;;4979952;28;20038;-63
2023/09/26 07:21:58;;;;;;;9.05;4.90;;;;;;;;;;4977892;28;20483;-64
2023/09/26 07:24:25;;;;;;;7.68;4.20;;;;;;;;;;4978970;28;20042;-64
2023/09/26 07:26:52;;;;;;;8.75;4.45;;;;;;;;;;4980559;28;20117;-62
2023/09/26 07:29:19;;;;;;;8.32;4.60;;;;;;;;;;4993479;28;20124;-62
2023/09/26 07:31:46;;;;;;;7.35;4.38;;;;;;;;;;4978401;28;20042;-62
2023/09/26 07:34:13;;;;;;;8.57;4.18;;;;;;;;;;4979134;28;20151;-66
2023/09/26 07:36:39;;;;;;;6.72;4.05;;;;;;;;;;4978293;28;20046;-60
2023/09/26 07:39:08;;;;;;;7.25;4.20;;;;;;;;;;4994518;28;20038;-65
2023/09/26 07:41:34;;;;;;;7.75;4.53;;;;;;;;;;4978690;28;20045;-61
2023/09/26 07:44:01;;;;;;;8.55;4.50;;;;;;;;;;4978015;28;20042;-63
2023/09/26 07:46:28;;;;;;;10.32;4.45;;;;;;;;;;4978645;28;20066;-63
2023/09/26 07:48:54;;;;;;;10.05;4.05;;;;;;;;;;4979918;28;20042;-64
2023/09/26 07:51:21;;;;;;;10.13;4.28;;;;;;;;;;4992335;28;20489;-62
2023/09/26 07:53:48;;;;;;;7.20;4.18;;;;;;;;;;4978252;28;20582;-63
2023/09/26 07:56:14;;;;;;;9.68;4.57;;;;;;;;;;4979772;28;20048;-63
2023/09/26 07:58:41;;;;;;;7.93;4.25;;;;;;;;;;4992244;28;20054;-63
2023/09/26 08:01:09;;;;;;;8.77;4.75;;;;;;;;;;4979186;28;20045;-63
2023/09/26 08:03:39;;;;;;;10.85;4.70;;;;;;;;;;4978193;28;20491;-60
2023/09/26 08:06:07;;;;;;;9.40;4.47;;;;;;;;;;4980354;28;20042;-62
2023/09/26 08:08:34;;;;;;;9.13;4.50;;;;;;;;;;4978842;28;20045;-63
2023/09/26 08:11:06;;;;;;;9.07;4.15;;;;;;;;;;4978535;28;20041;-63
2023/09/26 08:13:32;;;;;;;8.07;4.57;;;;;;;;;;4977738;28;20066;-61
2023/09/26 08:15:59;;;;;;;9.13;4.32;;;;;;;;;;5009445;28;20125;-63
2023/09/26 08:18:26;;;;;;;9.13;4.70;;;;;;;;;;4978721;28;20104;-64
2023/09/26 08:20:55;;;;;;;9.38;4.63;;;;;;;;;;4977146;28;20030;-62
2023/09/26 08:23:25;;;;;;;10.02;4.65;;;;;;;;;;4982693;28;20047;-61
2023/09/26 08:25:58;;;;;;;8.43;4.30;;;;;;;;;;4994524;28;20604;-63
2023/09/26 08:28:25;;;;;;;7.35;4.38;;;;;;;;;;4976834;28;20487;-62
2023/09/26 08:31:02;;;;;;;9.65;4.80;;;;;;;;;;4977519;28;20392;-61
2023/09/26 08:33:29;;;;;;;9.93;4.82;;;;;;;;;;4973801;28;20093;-60
2023/09/26 08:35:56;;;;;;;10.70;4.72;;;;;;;;;;4977762;28;20526;-61
2023/09/26 08:38:43;;;;;;;8.00;4.60;;;;;;;;;;5012601;28;20048;-63
2023/09/26 08:41:10;;;;;;;10.93;4.45;;;;;;;;;;5012864;28;20045;-61
2023/09/26 08:43:37;;;;;;;8.70;4.28;;;;;;;;;;5006507;28;20045;-61
2023/09/26 08:46:05;;;;;;;8.75;4.70;;;;;;;;;;5014688;28;20567;-61
2023/09/26 08:48:32;;;;;;;10.57;4.30;;;;;;;;;;5012611;28;20049;-61
2023/09/26 08:50:59;;;;;;;9.85;4.53;;;;;;;;;;5013897;28;20053;-63
2023/09/26 08:53:25;;;;;;;10.35;4.60;;;;;;;;;;5013115;28;20464;-62
2023/09/26 08:55:52;;;;;;;9.10;4.47;;;;;;;;;;5014689;28;20040;-63
2023/09/26 08:58:20;;;;;;;9.82;4.50;;;;;;;;;;5015444;28;20812;-63
2023/09/26 09:00:50;;;;;;;9.77;4.88;;;;;;;;;;5016124;28;20051;-61
2023/09/26 09:03:16;;;;;;;10.43;4.72;;;;;;;;;;5015251;28;21411;-65
2023/09/26 09:05:44;;;;;;;9.10;4.50;;;;;;;;;;5014440;28;20056;-61
2023/09/26 09:08:20;;;;;;;9.13;4.75;;;;;;;;;;5014263;28;20037;-60
2023/09/26 09:10:53;;;;;;;10.45;4.25;;;;;;;;;;5009723;28;21064;-63
2023/09/26 09:13:31;;;;;;;9.90;4.05;;;;;;;;;;5009151;28;20045;-62
2023/09/26 09:16:14;;;;;;;9.38;4.40;;;;;;;;;;5000078;28;20462;-62
2023/09/26 09:18:46;;;;;;;8.20;3.92;;;;;;;;;;4975269;28;20373;-63
2023/09/26 09:21:33;;;;;;;8.57;4.20;;;;;;;;;;4975984;28;20099;-64
2023/09/26 09:24:06;;;;;;;6.75;4.07;;;;;;;;;;4973932;28;20053;-64
2023/09/26 09:26:34;;;;;;;7.15;4.32;;;;;;;;;;4976427;28;20586;-63
2023/09/26 09:29:21;;;;;;;8.73;4.35;;;;;;;;;;4974842;28;20058;-62
2023/09/26 09:31:48;;;;;;;8.73;4.25;;;;;;;;;;4973459;28;20050;-63
2023/09/26 09:34:19;;;;;;;9.95;4.38;;;;;;;;;;5007926;28;20823;-61
2023/09/26 09:36:46;;;;;;;9.80;4.45;;;;;;;;;;4982393;28;20506;-61
2023/09/26 09:39:12;;;;;;;7.72;4.20;;;;;;;;;;4977740;28;20076;-63
2023/09/26 09:41:39;;;;;;;8.25;4.03;;;;;;;;;;4991917;28;20042;-61
2023/09/26 09:44:06;;;;;;;7.22;4.13;;;;;;;;;;4978901;28;20042;-63
2023/09/26 09:46:38;;;;;;;8.07;4.32;;;;;;;;;;4978763;28;20042;-62
2023/09/26 09:49:10;;;;;;;9.13;4.25;;;;;;;;;;4982015;28;20052;-61
2023/09/26 09:51:41;;;;;;;7.13;3.85;;;;;;;;;;4982661;28;20058;-63
2023/09/26 09:54:13;;;;;;;9.63;4.53;;;;;;;;;;4982180;28;20049;-62
2023/09/26 09:56:39;;;;;;;8.02;4.00;;;;;;;;;;4982522;28;20058;-63
2023/09/26 09:59:12;;;;;;;10.82;4.45;;;;;;;;;;4979810;28;20057;-64
2023/09/26 10:01:44;;;;;;;8.48;4.35;;;;;;;;;;4981614;28;20068;-63
2023/09/26 10:04:11;;;;;;;13.40;4.85;;;;;;;;;;5012504;28;20104;-64
2023/09/26 10:06:38;;;;;;;9.82;4.47;;;;;;;;;;4978324;28;20038;-65
2023/09/26 10:09:06;;;;;;;8.30;4.25;;;;;;;;;;4980076;28;20038;-63
2023/09/26 10:11:34;;;;;;;9.00;4.43;;;;;;;;;;4980047;28;20153;-62
2023/09/26 10:14:00;;;;;;;7.82;3.97;;;;;;;;;;4995634;28;20038;-63
2023/09/26 10:16:29;;;;;;;7.97;4.40;;;;;;;;;;4979149;28;20402;-62
2023/09/26 10:18:59;;;;;;;9.80;4.32;;;;;;;;;;4980445;28;20173;-63
2023/09/26 10:21:30;;;;;;;7.55;3.95;;;;;;;;;;4979630;28;20444;-63
2023/09/26 10:24:06;;;;;;;11.52;4.18;;;;;;;;;;4980552;28;20676;-62
2023/09/26 10:26:35;;;;;;;13.70;4.90;;;;;;;;;;4979142;28;20053;-64
2023/09/26 10:29:22;;;;;;;9.02;4.15;;;;;;;;;;4980905;28;20058;-62
2023/09/26 10:31:53;;;;;;;7.97;4.10;;;;;;;;;;4979622;28;20065;-62
2023/09/26 10:34:23;;;;;;;6.88;3.75;;;;;;;;;;4980843;28;20041;-63
2023/09/26 10:36:49;;;;;;;13.23;4.50;;;;;;;;;;4990790;28;20125;-63
2023/09/26 10:39:17;;;;;;;8.20;4.20;;;;;;;;;;4983550;28;20042;-61
2023/09/26 10:41:44;;;;;;;9.50;4.00;;;;;;;;;;4979019;28;20490;-64
2023/09/26 10:44:10;;;;;;;8.88;3.90;;;;;;;;;;4979667;28;20053;-62
2023/09/26 10:46:37;;;;;;;8.73;3.97;;;;;;;;;;4977984;28;20531;-61
2023/09/26 10:49:04;;;;;;;8.25;4.00;;;;;;;;;;4979830;28;20161;-63
2023/09/26 10:51:30;;;;;;;7.45;3.88;;;;;;;;;;4978989;28;20089;-64
2023/09/26 10:53:58;;;;;;;8.15;3.75;;;;;;;;;;4979482;28;20152;-62
2023/09/26 10:56:24;;;;;;;12.15;4.20;;;;;;;;;;4976678;28;20038;-65
2023/09/26 10:58:54;;;;;;;6.97;3.65;;;;;;;;;;4981413;28;20077;-62
2023/09/26 11:01:20;;;;;;;7.35;4.15;;;;;;;;;;4980753;28;20046;-60
2023/09/26 11:03:47;;;;;;;10.40;4.40;;;;;;;;;;4986921;28;20153;-62
2023/09/26 11:06:16;;;;;;;6.60;3.83;;;;;;;;;;4980135;28;20053;-64
2023/09/26 11:08:43;;;;;;;9.40;4.00;;;;;;;;;;4978297;28;20034;-63
2023/09/26 11:11:10;;;;;;;8.43;4.07;;;;;;;;;;4980251;28;20054;-61
2023/09/26 11:13:37;;;;;;;8.82;4.18;;;;;;;;;;4980302;28;20046;-63
2023/09/26 11:16:04;;;;;;;9.32;4.50;;;;;;;;;;4980239;28;20502;-66
2023/09/26 11:18:30;;;;;;;7.75;3.70;;;;;;;;;;4994714;28;20053;-63
2023/09/26 11:21:00;;;;;;;10.90;4.25;;;;;;;;;;4995318;28;20047;-61
2023/09/26 11:23:36;;;;;;;6.85;3.72;;;;;;;;;;4980197;28;20056;-65
2023/09/26 11:26:04;;;;;;;9.15;4.00;;;;;;;;;;4997722;28;20038;-63
2023/09/26 11:28:31;;;;;;;7.63;3.60;;;;;;;;;;4981109;28;20061;-63
2023/09/26 11:30:58;;;;;;;8.73;4.28;;;;;;;;;;4979342;28;20414;-63
2023/09/26 11:33:24;;;;;;;8.70;3.45;;;;;;;;;;4977785;28;20625;-62
2023/09/26 11:35:52;;;;;;;9.80;3.50;;;;;;;;;;4978217;28;20033;-62
2023/09/26 11:38:19;;;;;;;11.20;3.97;;;;;;;;;;4979953;28;20057;-61
2023/09/26 11:40:47;;;;;;;8.90;3.88;;;;;;;;;;4979105;28;20542;-62
2023/09/26 11:43:13;;;;;;;9.90;3.60;;;;;;;;;;4979179;28;20034;-63
2023/09/26 11:45:40;;;;;;;7.40;3.63;;;;;;;;;;4977710;28;20042;-63
2023/09/26 11:48:07;;;;;;;8.35;3.78;;;;;;;;;;4979959;28;20038;-63
2023/09/26 11:50:41;;;;;;;8.32;3.42;;;;;;;;;;4977383;28;20046;-62
2023/09/26 11:53:09;;;;;;;10.55;3.45;;;;;;;;;;4978825;28;20044;-62
2023/09/26 11:55:35;;;;;;;8.30;3.35;;;;;;;;;;4978426;28;20820;-63
2023/09/26 11:58:02;;;;;;;6.13;3.20;;;;;;;;;;4978315;28;20574;-62
2023/09/26 12:00:29;;;;;;;6.75;3.13;;;;;;;;;;4978017;28;20077;-63
2023/09/26 12:02:56;;;;;;;6.65;3.08;;;;;;;;;;4977908;28;20120;-63
2023/09/26 12:05:23;;;;;;;7.38;3.15;;;;;;;;;;4974990;28;20390;-63
2023/09/26 12:07:50;;;;;;;7.93;3.30;;;;;;;;;;4982828;28;20129;-62
2023/09/26 12:10:16;;;;;;;6.82;3.38;;;;;;;;;;4977927;28;20069;-62
2023/09/26 12:12:43;;;;;;;10.05;3.40;;;;;;;;;;4976496;28;20471;-62
2023/09/26 12:15:23;;;;;;;5.40;2.88;;;;;;;;;;4975595;28;20049;-64
2023/09/26 12:17:53;;;;;;;7.57;2.88;;;;;;;;;;4977301;28;20053;-62
2023/09/26 12:20:28;;;;;;;8.43;3.10;;;;;;;;;;4976856;28;20180;-64
2023/09/26 12:22:56;;;;;;;9.02;3.03;;;;;;;;;;4983965;28;20054;-64
2023/09/26 12:25:23;;;;;;;9.23;3.05;;;;;;;;;;4977690;28;20042;-64
2023/09/26 12:27:53;;;;;;;8.55;3.45;;;;;;;;;;4980012;28;20046;-62
2023/09/26 12:30:21;;;;;;;9.18;3.33;;;;;;;;;;4978632;28;20042;-63
2023/09/26 12:32:52;;;;;;;6.72;2.88;;;;;;;;;;4977190;28;20121;-63
2023/09/26 12:35:18;;;;;;;9.25;3.03;;;;;;;;;;4976934;28;20085;-62
2023/09/26 12:37:45;;;;;;;8.32;3.10;;;;;;;;;;4977271;28;20042;-62
2023/09/26 12:40:15;;;;;;;6.95;3.17;;;;;;;;;;4976997;28;20046;-62
2023/09/26 12:42:42;;;;;;;6.68;3.15;;;;;;;;;;4977829;28;20050;-64
2023/09/26 12:45:09;;;;;;;6.80;2.97;;;;;;;;;;4976573;28;20496;-63
2023/09/26 12:47:36;;;;;;;7.45;2.92;;;;;;;;;;4977609;28;20121;-62
2023/09/26 12:50:08;;;;;;;8.15;2.85;;;;;;;;;;4978385;28;20042;-62
2023/09/26 12:52:38;;;;;;;10.63;3.70;;;;;;;;;;4976807;28;20046;-63
2023/09/26 12:55:05;;;;;;;9.80;3.13;;;;;;;;;;4977033;28;20038;-63
2023/09/26 12:57:33;;;;;;;10.77;3.40;;;;;;;;;;4977624;28;20053;-62
2023/09/26 13:00:00;;;;;;;6.53;3.08;;;;;;;;;;4978010;28;20042;-63
2023/09/26 13:02:27;;;;;;;10.90;3.20;;;;;;;;;;4976549;28;20530;-63
2023/09/26 13:04:54;;;;;;;7.68;2.90;;;;;;;;;;4979053;28;20043;-64
2023/09/26 13:07:23;;;;;;;7.82;3.10;;;;;;;;;;4977158;28;20097;-65
2023/09/26 13:09:50;;;;;;;8.30;3.08;;;;;;;;;;4977786;28;20533;-64
2023/09/26 13:12:17;;;;;;;9.75;3.20;;;;;;;;;;4977140;28;20042;-64
2023/09/26 13:14:44;;;;;;;6.07;2.80;;;;;;;;;;4975558;28;20042;-62
2023/09/26 13:17:12;;;;;;;8.18;3.35;;;;;;;;;;4976650;28;20066;-65
2023/09/26 13:19:41;;;;;;;6.07;3.08;;;;;;;;;;4977900;28;20109;-63
2023/09/26 13:22:11;;;;;;;9.52;2.97;;;;;;;;;;4979662;28;20613;-64
2023/09/26 13:24:38;;;;;;;7.85;3.17;;;;;;;;;;4979552;28;20070;-64
2023/09/26 13:27:05;;;;;;;6.28;2.75;;;;;;;;;;4980036;28;20600;-63
2023/09/26 13:29:32;;;;;;;8.20;2.70;;;;;;;;;;4979316;28;20054;-64
2023/09/26 13:32:02;;;;;;;8.35;2.53;;;;;;;;;;4980733;28;20133;-64
2023/09/26 13:34:29;;;;;;;10.13;2.72;;;;;;;;;;4978976;28;20042;-66
2023/09/26 13:36:56;;;;;;;7.75;2.65;;;;;;;;;;4979205;28;20126;-65
2023/09/26 13:39:23;;;;;;;5.97;2.28;;;;;;;;;;4979203;28;20050;-67
2023/09/26 13:41:50;;;;;;;8.80;2.75;;;;;;;;;;5012641;28;20038;-69
2023/09/26 13:44:17;;;;;;;9.25;2.75;;;;;;;;;;4980983;28;20046;-69
2023/09/26 13:46:44;;;;;;;5.93;2.30;;;;;;;;;;4978640;28;20030;-66
2023/09/26 13:49:10;;;;;;;6.90;2.63;;;;;;;;;;4981808;28;20484;-68
2023/09/26 13:51:37;;;;;;;6.53;2.40;;;;;;;;;;4978623;28;20092;-68
2023/09/26 13:54:06;;;;;;;8.35;2.47;;;;;;;;;;4980236;28;20038;-67
2023/09/26 13:56:32;;;;;;;9.18;2.28;;;;;;;;;;4977343;28;20896;-68
2023/09/26 13:58:59;;;;;;;5.03;2.30;;;;;;;;;;4980327;28;20038;-67
2023/09/26 14:01:26;;;;;;;7.68;2.30;;;;;;;;;;4977671;28;20027;-67
2023/09/26 14:03:52;;;;;;;17.52;2.67;;;;;;;;;;4979077;28;20129;-63
2023/09/26 14:06:20;;;;;;;9.95;2.40;;;;;;;;;;4978418;28;20126;-66
2023/09/26 14:08:47;;;;;;;9.43;2.70;;;;;;;;;;4978993;28;20078;-65
2023/09/26 14:11:13;;;;;;;6.20;2.35;;;;;;;;;;4979328;28;20073;-65
2023/09/26 14:13:41;;;;;;;5.53;2.10;;;;;;;;;;4978506;28;20155;-64
2023/09/26 14:16:07;;;;;;;7.68;2.22;;;;;;;;;;4978222;28;20042;-63
2023/09/26 14:18:36;;;;;;;7.18;2.50;;;;;;;;;;4979288;28;20726;-63
2023/09/26 14:21:07;;;;;;;6.15;2.25;;;;;;;;;;4994264;28;20062;-65
2023/09/26 14:23:34;;;;;;;5.80;2.47;;;;;;;;;;4979127;28;20065;-65
2023/09/26 14:26:00;;;;;;;6.07;2.20;;;;;;;;;;4977189;28;20100;-65
2023/09/26 14:28:27;;;;;;;4.95;2.20;;;;;;;;;;4978329;28;20509;-64
2023/09/26 14:30:54;;;;;;;8.35;2.10;;;;;;;;;;4978170;28;20046;-65
2023/09/26 14:33:21;;;;;;;6.13;2.30;;;;;;;;;;4993490;28;20363;-66
2023/09/26 14:35:47;;;;;;;7.13;1.92;;;;;;;;;;4979116;28;20065;-64
2023/09/26 14:38:14;;;;;;;7.03;2.20;;;;;;;;;;4979809;28;20049;-64
2023/09/26 14:40:41;;;;;;;8.60;2.05;;;;;;;;;;4977625;28;20038;-63
2023/09/26 14:43:07;;;;;;;6.43;2.08;;;;;;;;;;4979165;28;20105;-65
2023/09/26 14:45:34;;;;;;;13.90;2.40;;;;;;;;;;4977375;28;20046;-63